METAR Data
IDs: Format: Raw Decoded Include TAF

Data at: 0521 UTC 18 Jan 2022

KRYV 180515Z AUTO 00000KT 10SM OVC110 M08/M10 A2990 RMK AO2 T10811104